Lynnville, Illinois
Current Conditions -  °F | °C
As of 7:35 PM on Wednesday 26 Nov 2014 (Local Time) from KIJX Reporting Station
Light Snow Light Snow  
Wind Chill: 25°   Ceiling: 400
Heat Index: 32°   Visibility: 2mi
Dew Point: 30°   Wind: 8mph
Humidity: 93%   Direction: 40°NE
Pressure: 30.11"   Gusts: NA
Location:  39.7413°N, 90.2138°W
Report Text: KIJX 270135Z AUTO 04007KT 2SM -SN BKN004 OVC015 00/M01 A3011 RMK AO2 T10011011
Loading
Personal Weather Stations






























Interactive Weather Map New forecast layout! Learn more

10-Day Weather Forecast

Advertisements
Track Severe Weather on mobile